John F Kennedy International Airport
KJFK : now visible

Airfield :











YOU CAN JOIN US ON...

 
LOGIN :

Register | Disclaimer

   EN    FR    IT 

 









Legend :    VFR   Marginal VFR   IFR   Intensive IFR   Very Intensive IFR
Visi :
Ceiling :
>= 8 km
>= 3000ft
5 to 8 km
1000 to 3000 ft
1500m to 5 km
500 to 1000 ft
800 to 1500m
200 to 500 ft
< 800m
< 200 ft
Symbols :   Thunderstorms  Fog  Heavy snow  Heavy precipitations  Wind > 20 kt






- Airport Elevation : 13 ft
- IATA code : JFK


KJFK - John F Kennedy International

CURRENT METAR :
  • 160451Z 20007KT 10SM FEW100 BKN120 BKN140 14/06 A3024 RMK AO2 SLP238 T01440056 402390094

EXPIRED METARs :
  • 160351Z 22007KT 10SM SCT120 BKN140 15/07 A3024 RMK AO2 SLP239 T01500067
  • 160251Z 20004KT 10SM FEW120 BKN140 14/08 A3024 RMK AO2 SLP238 T01390083 50006

TAF KJFK
Valid from the 16 at 03:00 until the 17 at 06:00 UTC


160230Z 1603/1706 20009KT P6SM FEW150 BKN250
FM160600 24006KT P6SM SCT150 BKN250
FM161400 21008KT P6SM FEW080 BKN150
FM161800 18013KT P6SM SCT080 BKN150
FM170100 19009KT P6SM FEW060 BKN150
FM170400 20005KT P6SM FEW060 BKN250
KZNY FIR / North America



MET'MAP, your aeronautical weather chart ! - Copyright ORBIFLY December 2007 - Disclaimer

ORBIFLY MET'MAP TEAM :

Programming & Development : Alexandra Zaïnal
Concept & original design : Baudouin d'Aumeries
Assistance for programming : Marc-Olivier Méhu
Technical & hardware support : Manuel Goepfert

Contact : metmap@orbifly.com




SOURCES & CREDITS :

   NOAA       Earth
Advisory